Time;durP1;ratioP1;P1;durP2;ratioP2;P2;SDS_P1;SDS_P2;PMS_P1;PMS_P2;Temp;Humidity;BMP_temperature;BMP_pressure;BME280_temperature;BME280_humidity;BME280_pressure;Samples;Min_cycle;Max_cycle;Signal;HPM_P1;HPM_P2
2023/05/06 00:01:26;;;;;;;0.85;0.77;;;;;;;20.84;42.61;102215.41;21004963;28;20040;-73
2023/05/06 00:11:27;;;;;;;0.82;0.70;;;;;;;20.83;42.64;102236.00;21004607;28;20045;-74
2023/05/06 00:21:29;;;;;;;1.30;0.73;;;;;;;19.92;42.84;102087.66;21003537;28;20044;-74
2023/05/06 00:31:30;;;;;;;0.40;0.40;;;;;;;20.80;42.70;102254.06;21002139;28;20045;-73
2023/05/06 00:41:34;;;;;;;1.48;0.68;;;;;;;20.81;42.77;102261.28;21002475;28;20033;-73
2023/05/06 00:51:36;;;;;;;0.73;0.60;;;;;;;20.79;42.68;102266.25;21001798;28;20071;-73
2023/05/06 01:01:37;;;;;;;0.77;0.77;;;;;;;20.78;42.75;102283.19;20994999;28;20037;-74
2023/05/06 01:12:06;;;;;;;1.25;0.50;;;;;;;20.73;42.95;102275.59;21004877;28;20052;-74
2023/05/06 01:22:10;;;;;;;0.60;0.50;;;;;;;20.78;42.65;102308.22;20954019;28;20032;-74
2023/05/06 01:32:25;;;;;;;0.60;0.60;;;;;;;20.77;42.82;102331.59;20998394;28;20045;-73
2023/05/06 01:42:28;;;;;;;0.50;0.50;;;;;;;20.73;42.72;102320.09;20921156;28;20041;-73
2023/05/06 01:52:29;;;;;;;1.15;0.40;;;;;;;20.76;42.73;102341.88;20924111;28;20391;-76
2023/05/06 02:02:30;;;;;;;0.95;0.73;;;;;;;20.51;42.80;102289.31;20939537;28;20395;-75
2023/05/06 02:12:32;;;;;;;2.70;0.75;;;;;;;20.66;42.97;102322.16;20971141;28;20040;-73
2023/05/06 02:22:33;;;;;;;1.75;0.77;;;;;;;20.69;42.93;102335.59;20944562;28;20040;-73
2023/05/06 02:32:34;;;;;;;0.75;0.63;;;;;;;20.68;43.16;102339.47;20953524;28;20045;-71
2023/05/06 02:42:36;;;;;;;1.58;0.70;;;;;;;20.51;43.42;102311.56;20965451;28;20102;-72
2023/05/06 02:52:40;;;;;;;1.05;0.70;;;;;;;20.66;43.50;102349.97;20937097;28;20117;-73
2023/05/06 03:02:44;;;;;;;12.07;0.90;;;;;;;20.67;43.44;102354.47;20963666;28;20071;-73
2023/05/06 03:12:46;;;;;;;0.85;0.68;;;;;;;20.72;42.91;102346.22;20939496;28;20045;-74
2023/05/06 03:22:47;;;;;;;3.67;0.85;;;;;;;20.69;43.94;102346.72;20964940;28;20045;-70
2023/05/06 03:32:51;;;;;;;6.25;1.23;;;;;;;20.75;43.83;102347.66;20979675;28;20484;-70
2023/05/06 03:42:55;;;;;;;4.65;0.93;;;;;;;20.81;43.52;102355.88;20961575;28;20049;-69
2023/05/06 03:53:02;;;;;;;4.97;1.25;;;;;;;20.85;43.50;102372.06;20964870;28;20040;-69
2023/05/06 04:03:03;;;;;;;5.00;1.35;;;;;;;20.66;43.38;102324.09;20972475;28;20553;-70
2023/05/06 04:13:05;;;;;;;3.33;0.80;;;;;;;20.94;43.58;102370.63;21004907;28;20066;-70
2023/05/06 04:23:09;;;;;;;2.97;0.70;;;;;;;20.98;43.85;102382.91;20970997;28;20039;-71
2023/05/06 04:33:10;;;;;;;3.28;1.17;;;;;;;21.00;44.04;102380.75;21002703;28;20033;-69
2023/05/06 04:43:12;;;;;;;4.90;0.70;;;;;;;20.68;44.14;102316.38;21002706;28;20365;-69
2023/05/06 04:53:14;;;;;;;2.35;0.77;;;;;;;21.15;44.01;102383.84;21001280;28;20468;-69
2023/05/06 05:03:15;;;;;;;1.15;0.68;;;;;;;21.20;44.49;102381.16;21001202;28;20037;-69
2023/05/06 05:13:18;;;;;;;0.95;0.60;;;;;;;21.19;44.46;102364.72;20935887;28;20040;-69
2023/05/06 05:23:19;;;;;;;2.30;0.80;;;;;;;21.18;44.31;102369.44;20917502;28;20107;-69
2023/05/06 05:33:20;;;;;;;2.35;0.75;;;;;;;21.35;44.53;102374.22;20915933;28;20111;-69
2023/05/06 05:43:25;;;;;;;1.05;0.55;;;;;;;21.38;44.22;102357.88;20934186;28;20048;-69
2023/05/06 05:53:27;;;;;;;1.92;1.00;;;;;;;21.45;44.52;102354.94;20996823;28;20118;-69
2023/05/06 06:03:28;;;;;;;1.00;0.77;;;;;;;21.47;44.41;102347.16;20977632;28;20045;-69
2023/05/06 06:13:29;;;;;;;1.85;1.00;;;;;;;21.50;44.32;102355.03;20990761;28;20033;-70
2023/05/06 06:23:31;;;;;;;1.17;0.80;;;;;;;21.52;44.61;102350.88;20923686;28;20075;-69
2023/05/06 06:33:32;;;;;;;1.50;0.80;;;;;;;21.46;44.14;102337.13;20931963;28;20557;-69
2023/05/06 06:43:33;;;;;;;3.33;0.85;;;;;;;21.58;44.35;102354.63;20911180;28;20549;-69
2023/05/06 06:53:35;;;;;;;1.20;0.85;;;;;;;21.63;44.36;102354.72;20911509;28;20044;-69
2023/05/06 07:03:38;;;;;;;1.27;0.70;;;;;;;21.65;44.20;102360.03;20925967;28;20048;-69
2023/05/06 07:13:42;;;;;;;1.65;0.80;;;;;;;21.44;44.22;102330.94;20967744;28;20041;-69
2023/05/06 07:23:43;;;;;;;1.13;0.73;;;;;;;21.57;44.14;102359.31;21001207;28;20548;-69
2023/05/06 07:33:50;;;;;;;1.10;0.90;;;;;;;21.68;44.50;102382.66;20917073;28;20068;-69
2023/05/06 07:43:52;;;;;;;0.65;0.57;;;;;;;21.70;44.36;102379.59;20968662;28;20051;-69
2023/05/06 07:53:53;;;;;;;1.42;0.90;;;;;;;21.70;44.30;102380.44;20939001;28;20049;-68
2023/05/06 08:03:59;;;;;;;0.95;0.63;;;;;;;21.72;44.22;102383.00;20947571;28;20069;-69
2023/05/06 08:14:00;;;;;;;1.38;0.70;;;;;;;21.71;44.56;102387.69;20945897;28;20045;-69
2023/05/06 08:24:04;;;;;;;0.70;0.70;;;;;;;21.71;44.53;102393.28;20981849;28;20040;-70
2023/05/06 08:34:06;;;;;;;1.15;0.93;;;;;;;21.60;44.38;102380.28;20967995;28;20099;-69
2023/05/06 08:44:07;;;;;;;1.13;1.00;;;;;;;21.70;44.62;102397.16;20919112;28;20064;-69
2023/05/06 08:54:10;;;;;;;1.58;1.00;;;;;;;21.65;44.95;102394.28;20918922;28;20118;-69
2023/05/06 09:04:14;;;;;;;0.93;0.82;;;;;;;21.69;44.78;102400.22;20918891;28;20033;-69
2023/05/06 09:14:17;;;;;;;1.48;0.80;;;;;;;21.67;44.72;102403.25;20992799;28;20375;-70
2023/05/06 09:24:19;;;;;;;1.38;0.70;;;;;;;21.67;44.84;102414.41;20967508;28;20041;-69
2023/05/06 09:34:21;;;;;;;1.10;0.80;;;;;;;21.69;44.80;102412.19;20916328;28;20037;-69
2023/05/06 09:44:24;;;;;;;1.30;1.20;;;;;;;21.70;45.01;102413.03;20915435;28;20041;-69
2023/05/06 09:54:26;;;;;;;1.52;0.70;;;;;;;21.69;45.13;102406.63;20913843;28;20377;-69
2023/05/06 10:04:30;;;;;;;1.00;0.80;;;;;;;21.69;44.88;102417.78;20981781;28;20049;-69
2023/05/06 10:14:37;;;;;;;1.40;0.90;;;;;;;21.67;45.08;102414.41;20983166;28;20062;-70
2023/05/06 10:25:19;;;;;;;1.15;0.90;;;;;;;21.67;45.10;102417.19;20997777;28;20949;-70
2023/05/06 10:35:53;;;;;;;0.98;0.70;;;;;;;21.62;44.49;102425.44;20943996;28;20481;-69
2023/05/06 10:46:13;;;;;;;1.90;1.10;;;;;;;21.65;44.62;102447.22;20989590;28;20048;-69
2023/05/06 10:56:15;;;;;;;1.55;1.02;;;;;;;21.67;44.09;102447.84;20983967;28;20361;-70
2023/05/06 11:06:40;;;;;;;1.00;0.90;;;;;;;21.63;44.52;102449.44;20960883;28;20037;-70
2023/05/06 11:16:51;;;;;;;1.15;1.05;;;;;;;21.63;44.25;102451.38;20926281;28;20041;-70
2023/05/06 11:26:54;;;;;;;1.88;0.90;;;;;;;21.56;44.36;102434.78;20943750;28;20040;-71
2023/05/06 11:37:03;;;;;;;1.42;0.93;;;;;;;21.69;44.59;102456.78;21002893;28;20036;-71
2023/05/06 11:47:06;;;;;;;1.73;1.00;;;;;;;21.70;44.53;102452.88;20943434;28;20043;-69
2023/05/06 11:57:08;;;;;;;14.75;2.17;;;;;;;21.67;45.02;102449.75;20971918;28;20036;-70
2023/05/06 12:07:12;;;;;;;2.17;1.27;;;;;;;21.72;44.52;102467.44;21010704;28;20102;-69
2023/05/06 12:17:14;;;;;;;2.25;1.30;;;;;;;21.68;44.62;102462.59;20973284;28;20049;-69
2023/05/06 12:27:38;;;;;;;1.88;1.35;;;;;;;21.61;45.02;102471.09;21003578;28;20040;-69
2023/05/06 12:37:39;;;;;;;4.63;1.20;;;;;;;21.73;44.59;102490.56;20979821;28;20049;-69
2023/05/06 12:47:52;;;;;;;8.88;1.33;;;;;;;21.70;44.82;102494.69;20975859;28;20450;-69
2023/05/06 12:57:53;;;;;;;6.80;1.70;;;;;;;21.74;44.69;102493.09;21000191;28;20483;-69
2023/05/06 13:07:55;;;;;;;2.15;1.30;;;;;;;21.74;44.44;102492.25;20996861;28;20445;-69
2023/05/06 13:17:57;;;;;;;4.97;1.85;;;;;;;21.76;44.26;102468.63;20994362;28;20041;-70
2023/05/06 13:27:58;;;;;;;2.53;1.30;;;;;;;21.70;44.34;102464.03;20951974;28;20044;-70
2023/05/06 13:38:02;;;;;;;4.78;1.50;;;;;;;21.60;44.37;102446.28;20980648;28;20043;-69
2023/05/06 13:48:09;;;;;;;2.13;1.40;;;;;;;21.74;44.26;102470.81;20995224;28;20033;-68
2023/05/06 13:58:10;;;;;;;2.33;1.30;;;;;;;21.77;44.16;102458.31;20990455;28;20492;-70
2023/05/06 14:08:12;;;;;;;3.00;1.55;;;;;;;21.82;44.30;102462.03;20948673;28;20079;-70
2023/05/06 14:18:16;;;;;;;5.45;1.90;;;;;;;21.62;44.94;102430.16;20953870;28;20045;-70
2023/05/06 14:28:17;;;;;;;4.95;1.88;;;;;;;21.78;45.26;102437.72;20936909;28;20129;-69
2023/05/06 14:38:18;;;;;;;5.47;1.58;;;;;;;21.90;45.22;102443.19;20941115;28;20483;-69
2023/05/06 14:48:20;;;;;;;7.05;1.85;;;;;;;21.82;45.28;102417.47;20931551;28;20048;-68
2023/05/06 14:58:21;;;;;;;3.42;1.60;;;;;;;21.95;45.03;102426.59;20937601;28;20037;-68
2023/05/06 15:08:22;;;;;;;4.38;1.85;;;;;;;21.95;44.94;102433.00;20946052;28;20480;-68
2023/05/06 15:18:24;;;;;;;5.38;1.75;;;;;;;21.70;45.11;102374.03;21024129;28;20037;-69
2023/05/06 15:28:25;;;;;;;6.07;1.50;;;;;;;21.77;44.85;102381.16;20992207;28;20041;-69
2023/05/06 15:38:27;;;;;;;5.65;1.60;;;;;;;21.99;44.87;102388.72;20972600;28;20044;-68
2023/05/06 15:48:28;;;;;;;5.75;1.38;;;;;;;22.01;44.52;102389.34;20969359;28;20094;-68
2023/05/06 15:58:29;;;;;;;4.80;1.63;;;;;;;21.95;44.78;102382.00;20970172;28;20045;-68
2023/05/06 16:08:31;;;;;;;5.43;1.40;;;;;;;22.03;44.62;102368.47;21013654;28;20765;-68
2023/05/06 16:18:34;;;;;;;2.22;1.33;;;;;;;22.04;44.29;102359.03;20976577;28;20045;-68
2023/05/06 16:28:35;;;;;;;6.20;1.55;;;;;;;22.06;44.49;102344.81;20976062;28;20075;-68
2023/05/06 16:38:37;;;;;;;2.42;1.30;;;;;;;21.93;44.22;102306.16;20941723;28;20029;-69
2023/05/06 16:48:39;;;;;;;3.47;1.90;;;;;;;22.02;44.22;102311.03;20939784;28;20564;-69
2023/05/06 16:58:41;;;;;;;5.40;1.10;;;;;;;22.08;44.27;102298.00;20971486;28;20407;-69
2023/05/06 17:08:46;;;;;;;2.25;1.20;;;;;;;22.04;44.07;102277.34;20937376;28;20044;-68
2023/05/06 17:18:47;;;;;;;3.47;1.05;;;;;;;21.89;44.01;102238.09;20937804;28;20033;-69
2023/05/06 17:28:49;;;;;;;2.42;1.40;;;;;;;21.98;44.17;102236.53;20963158;28;20049;-69
2023/05/06 17:39:09;;;;;;;3.90;1.23;;;;;;;22.08;43.84;102245.91;20943727;28;20076;-71
2023/05/06 17:49:10;;;;;;;2.70;1.00;;;;;;;21.82;43.76;102188.97;20914942;28;20041;-72
2023/05/06 17:59:12;;;;;;;2.55;0.95;;;;;;;22.06;43.71;102216.59;20914604;28;20033;-73
2023/05/06 18:09:13;;;;;;;1.80;0.95;;;;;;;22.12;43.61;102215.59;20913412;28;20118;-73
2023/05/06 18:19:17;;;;;;;2.17;1.30;;;;;;;22.15;43.80;102203.91;20912133;28;20041;-72
2023/05/06 18:29:19;;;;;;;1.10;0.82;;;;;;;22.11;43.75;102194.34;20911838;28;20048;-71
2023/05/06 18:39:41;;;;;;;6.30;1.67;;;;;;;22.05;43.76;102159.16;20911741;28;20443;-72
2023/05/06 18:49:42;;;;;;;1.63;1.05;;;;;;;22.20;43.63;102161.31;20910512;28;20060;-72
2023/05/06 18:59:44;;;;;;;1.13;0.90;;;;;;;22.21;43.81;102140.69;20910516;28;20078;-71
2023/05/06 19:09:54;;;;;;;1.15;0.90;;;;;;;22.19;43.75;102132.59;20909814;28;20094;-72
2023/05/06 19:19:58;;;;;;;0.80;0.80;;;;;;;22.20;43.79;102114.75;20909825;28;20456;-72
2023/05/06 19:30:00;;;;;;;2.35;1.17;;;;;;;22.12;43.63;102084.56;20912719;28;20072;-73
2023/05/06 19:40:03;;;;;;;1.33;0.80;;;;;;;22.23;43.51;102100.31;20925364;28;20029;-73
2023/05/06 19:50:05;;;;;;;1.13;0.93;;;;;;;22.14;43.45;102067.59;20974992;28;20044;-71
2023/05/06 20:00:09;;;;;;;0.80;0.80;;;;;;;22.23;43.66;102075.22;21053325;28;20040;-70
2023/05/06 20:10:12;;;;;;;1.38;0.95;;;;;;;22.20;43.40;102045.06;21025853;28;20117;-72
2023/05/06 20:20:16;;;;;;;1.17;0.77;;;;;;;22.14;43.45;102034.97;21018806;28;20540;-73
2023/05/06 20:30:27;;;;;;;1.02;0.80;;;;;;;22.12;43.59;102023.22;20980001;28;20115;-73
2023/05/06 20:40:30;;;;;;;3.40;1.05;;;;;;;22.18;43.50;102024.97;20952799;28;20192;-68
2023/05/06 20:50:31;;;;;;;3.65;1.00;;;;;;;22.19;43.92;102037.81;20991739;28;20044;-68
2023/05/06 21:00:33;;;;;;;12.13;1.73;;;;;;;22.19;43.77;102023.03;20930517;28;20041;-69
2023/05/06 21:10:34;;;;;;;5.13;1.00;;;;;;;22.27;44.09;102016.97;20946158;28;20053;-68
2023/05/06 21:20:38;;;;;;;3.10;1.20;;;;;;;22.28;44.17;102013.91;20984180;28;20059;-68
2023/05/06 21:30:42;;;;;;;4.72;1.00;;;;;;;22.29;44.23;102003.59;20986917;28;20488;-68
2023/05/06 21:40:43;;;;;;;4.63;1.52;;;;;;;22.31;44.09;102007.81;20981816;28;20094;-68
2023/05/06 21:50:45;;;;;;;4.88;1.30;;;;;;;22.24;43.95;101986.84;20974013;28;20095;-68
2023/05/06 22:00:49;;;;;;;1.52;0.90;;;;;;;22.12;44.13;101955.50;21018390;28;20044;-68
2023/05/06 22:10:51;;;;;;;4.78;1.20;;;;;;;22.01;44.23;101923.88;20969210;28;20101;-68
2023/05/06 22:20:55;;;;;;;13.77;1.73;;;;;;;22.10;44.66;101933.44;20972505;28;20041;-69
2023/05/06 22:30:56;;;;;;;6.65;1.38;;;;;;;22.35;44.86;101948.72;20955846;28;20049;-68
2023/05/06 22:41:00;;;;;;;2.92;1.30;;;;;;;22.38;45.42;101957.41;20994732;28;20479;-68
2023/05/06 22:51:02;;;;;;;10.85;1.95;;;;;;;22.36;45.66;101956.84;20987153;28;20483;-68
2023/05/06 23:01:06;;;;;;;5.18;1.50;;;;;;;22.41;45.97;101950.47;20978660;28;20090;-68
2023/05/06 23:11:07;;;;;;;3.58;1.30;;;;;;;22.42;45.88;101963.28;20992385;28;20048;-68
2023/05/06 23:21:11;;;;;;;11.63;2.05;;;;;;;22.43;45.95;101963.00;20952290;28;20036;-69
2023/05/06 23:31:15;;;;;;;8.23;1.40;;;;;;;22.44;46.08;101977.78;20929969;28;20049;-68
2023/05/06 23:41:16;;;;;;;10.18;1.40;;;;;;;22.43;46.29;101976.97;20908839;28;20091;-68
2023/05/06 23:51:17;;;;;;;5.95;1.63;;;;;;;22.45;45.82;101982.25;20908255;28;20102;-68
